createdAt,value
2023-04-26T00:00:19.185Z,0.58
2023-04-26T00:01:19.223Z,0.58
2023-04-26T00:02:19.396Z,0.57
2023-04-26T00:03:19.424Z,0.57
2023-04-26T00:04:19.516Z,0.57
2023-04-26T00:05:19.573Z,0.58
2023-04-26T00:06:19.360Z,0.58
2023-04-26T00:07:19.415Z,0.56
2023-04-26T00:08:19.438Z,0.58
2023-04-26T00:09:19.483Z,0.58
2023-04-26T00:10:19.494Z,0.57
2023-04-26T00:11:19.522Z,0.57
2023-04-26T00:12:19.567Z,0.57
2023-04-26T00:13:19.582Z,0.57
2023-04-26T00:14:19.612Z,0.56
2023-04-26T00:15:19.656Z,0.56
2023-04-26T00:16:19.711Z,0.57
2023-04-26T00:17:19.718Z,0.57
2023-04-26T00:18:19.767Z,0.57
2023-04-26T00:19:19.773Z,0.57
2023-04-26T00:20:19.806Z,0.56
2023-04-26T00:21:19.819Z,0.58
2023-04-26T00:22:19.846Z,0.56
2023-04-26T00:23:19.882Z,0.57
2023-04-26T00:24:19.916Z,0.57
2023-04-26T00:25:19.948Z,0.56
2023-04-26T00:26:19.954Z,0.56
2023-04-26T00:27:19.982Z,0.57
2023-04-26T00:28:20.003Z,0.56
2023-04-26T00:29:20.034Z,0.55
2023-04-26T00:30:20.075Z,0.57
2023-04-26T00:31:20.133Z,0.56
2023-04-26T00:32:20.182Z,0.55
2023-04-26T00:33:20.131Z,0.56
2023-04-26T00:34:20.196Z,0.56
2023-04-26T00:35:20.173Z,0.56
2023-04-26T00:36:20.204Z,0.56
2023-04-26T00:37:20.974Z,0.56
2023-04-26T00:38:20.243Z,0.55
2023-04-26T00:39:20.279Z,0.56
2023-04-26T00:40:20.310Z,0.55
2023-04-26T00:41:20.353Z,0.56
2023-04-26T00:42:20.373Z,0.55
2023-04-26T00:43:20.974Z,0.56
2023-04-26T00:44:20.443Z,0.55
2023-04-26T00:45:20.451Z,0.55
2023-04-26T00:46:20.587Z,0.56
2023-04-26T00:47:20.482Z,0.56
2023-04-26T00:48:20.502Z,0.56
2023-04-26T00:49:20.528Z,0.56
2023-04-26T00:50:20.552Z,0.56
2023-04-26T00:51:20.575Z,0.56
2023-04-26T00:52:20.599Z,0.56
2023-04-26T00:53:20.626Z,0.56
2023-04-26T00:54:20.659Z,0.56
2023-04-26T00:55:20.729Z,0.56
2023-04-26T00:56:20.704Z,0.56
2023-04-26T00:57:20.718Z,0.56
2023-04-26T00:58:20.732Z,0.55
2023-04-26T00:59:20.817Z,0.56
2023-04-26T01:00:20.797Z,0.57
2023-04-26T01:01:20.860Z,0.56
2023-04-26T01:02:20.946Z,0.55
2023-04-26T01:03:20.937Z,0.55
2023-04-26T01:04:21.000Z,0.56
2023-04-26T01:05:20.916Z,0.54
2023-04-26T01:06:20.936Z,0.56
2023-04-26T01:07:20.961Z,0.55
2023-04-26T01:08:21.150Z,0.56
2023-04-26T01:09:21.019Z,0.55
2023-04-26T01:10:21.038Z,0.55
2023-04-26T01:11:21.065Z,0.55
2023-04-26T01:12:21.088Z,0.55
2023-04-26T01:13:21.115Z,0.55
2023-04-26T01:14:21.151Z,0.56
2023-04-26T01:15:21.173Z,0.56
2023-04-26T01:16:21.211Z,0.56
2023-04-26T01:17:21.265Z,0.55
2023-04-26T01:18:21.247Z,0.54
2023-04-26T01:19:21.274Z,0.56
2023-04-26T01:20:21.292Z,0.55
2023-04-26T01:21:21.317Z,0.55
2023-04-26T01:22:21.345Z,0.55
2023-04-26T01:23:21.356Z,0.55
2023-04-26T01:24:21.387Z,0.54
2023-04-26T01:25:21.402Z,0.54
2023-04-26T01:26:21.412Z,0.55
2023-04-26T01:27:21.457Z,0.55
2023-04-26T01:28:21.483Z,0.54
2023-04-26T01:29:21.530Z,0.55
2023-04-26T01:30:21.531Z,0.54
2023-04-26T01:31:21.608Z,0.53
2023-04-26T01:32:21.585Z,0.55
2023-04-26T01:33:21.629Z,0.55
2023-04-26T01:34:21.656Z,0.54
2023-04-26T01:35:21.675Z,0.54
2023-04-26T01:36:21.684Z,0.56
2023-04-26T01:37:21.706Z,0.55
2023-04-26T01:38:21.730Z,0.54
2023-04-26T01:39:21.741Z,0.54
2023-04-26T01:40:21.786Z,0.54
2023-04-26T01:41:21.792Z,0.54
2023-04-26T01:42:21.826Z,0.55
2023-04-26T01:43:21.860Z,0.54
2023-04-26T01:44:21.880Z,0.54
2023-04-26T01:45:21.907Z,0.54
2023-04-26T01:46:21.986Z,0.54
2023-04-26T01:47:21.997Z,0.55
2023-04-26T01:48:22.046Z,0.54
2023-04-26T01:49:22.029Z,0.54
2023-04-26T01:50:22.061Z,0.56
2023-04-26T01:51:22.084Z,0.54
2023-04-26T01:52:22.126Z,0.55
2023-04-26T01:53:22.135Z,0.54
2023-04-26T01:54:22.174Z,0.55
2023-04-26T01:55:22.192Z,0.55
2023-04-26T01:56:22.214Z,0.55
2023-04-26T01:57:22.242Z,0.55
2023-04-26T01:58:22.263Z,0.56
2023-04-26T01:59:22.306Z,0.53
2023-04-26T02:00:22.323Z,0.55
2023-04-26T02:01:22.428Z,0.55
2023-04-26T02:02:22.433Z,0.55
2023-04-26T02:03:22.489Z,0.54
2023-04-26T02:04:22.452Z,0.54
2023-04-26T02:05:22.691Z,0.54
2023-04-26T02:06:22.506Z,0.54
2023-04-26T02:07:22.535Z,0.55
2023-04-26T02:08:22.574Z,0.54
2023-04-26T02:09:22.584Z,0.55
2023-04-26T02:10:22.623Z,0.53
2023-04-26T02:11:22.649Z,0.54
2023-04-26T02:12:22.699Z,0.54
2023-04-26T02:13:22.718Z,0.54
2023-04-26T02:14:22.742Z,0.54
2023-04-26T02:15:22.768Z,0.55
2023-04-26T02:16:22.826Z,0.54
2023-04-26T02:17:22.815Z,0.54
2023-04-26T02:18:22.850Z,0.56
2023-04-26T02:19:22.876Z,0.54
2023-04-26T02:20:22.919Z,0.54
2023-04-26T02:21:22.948Z,0.53
2023-04-26T02:22:22.965Z,0.54
2023-04-26T02:23:22.985Z,0.55
2023-04-26T02:24:23.037Z,0.55
2023-04-26T02:25:23.173Z,0.53
2023-04-26T02:26:23.087Z,0.54
2023-04-26T02:27:23.106Z,0.53
2023-04-26T02:28:23.141Z,0.54
2023-04-26T02:29:36.233Z,0.54
2023-04-26T02:30:24.138Z,0.54
2023-04-26T02:31:23.369Z,0.54
2023-04-26T02:32:23.098Z,0.54
2023-04-26T02:33:23.020Z,0.54
2023-04-26T02:34:22.997Z,0.54
2023-04-26T02:35:22.949Z,0.54
2023-04-26T02:36:22.906Z,0.54
2023-04-26T02:37:22.863Z,0.55
2023-04-26T02:38:22.821Z,0.54
2023-04-26T02:39:22.816Z,0.54
2023-04-26T02:40:22.854Z,0.55
2023-04-26T02:41:22.865Z,0.54
2023-04-26T02:42:22.893Z,0.54
2023-04-26T02:43:22.920Z,0.54
2023-04-26T02:44:22.948Z,0.54
2023-04-26T02:45:22.963Z,0.55
2023-04-26T02:46:23.011Z,0.54
2023-04-26T02:47:23.056Z,0.55
2023-04-26T02:48:23.044Z,0.53
2023-04-26T02:49:23.086Z,0.54
2023-04-26T02:50:23.105Z,0.54
2023-04-26T02:51:23.143Z,0.53
2023-04-26T02:52:23.167Z,0.54
2023-04-26T02:53:23.198Z,0.54
2023-04-26T02:54:23.222Z,0.53
2023-04-26T02:55:23.299Z,0.54
2023-04-26T02:56:23.276Z,0.53
2023-04-26T02:57:23.300Z,0.53
2023-04-26T02:58:23.362Z,0.54
2023-04-26T02:59:23.364Z,0.53
2023-04-26T03:00:23.383Z,0.54
2023-04-26T03:01:23.434Z,0.53
2023-04-26T03:02:23.517Z,0.53
2023-04-26T03:03:23.745Z,0.54
2023-04-26T03:04:23.518Z,0.54
2023-04-26T03:05:23.477Z,0.53
2023-04-26T03:06:23.501Z,0.54
2023-04-26T03:07:23.538Z,0.54
2023-04-26T03:08:23.569Z,0.53
2023-04-26T03:09:23.594Z,0.53
2023-04-26T03:10:23.627Z,0.53
2023-04-26T03:11:23.655Z,0.54
2023-04-26T03:12:23.685Z,0.53
2023-04-26T03:13:23.712Z,0.53
2023-04-26T03:14:23.738Z,0.53
2023-04-26T03:15:23.773Z,0.54
2023-04-26T03:16:23.917Z,0.54
2023-04-26T03:17:23.862Z,0.53
2023-04-26T03:18:23.869Z,0.53
2023-04-26T03:19:23.876Z,0.52
2023-04-26T03:20:23.905Z,0.54
2023-04-26T03:21:23.932Z,0.54
2023-04-26T03:22:23.957Z,0.53
2023-04-26T03:23:23.993Z,0.53
2023-04-26T03:24:24.036Z,0.53
2023-04-26T03:25:24.056Z,0.53
2023-04-26T03:26:24.096Z,0.54
2023-04-26T03:27:24.142Z,0.53
2023-04-26T03:28:24.168Z,0.53
2023-04-26T03:29:24.238Z,0.53
2023-04-26T03:30:24.229Z,0.53
2023-04-26T03:31:24.321Z,0.54
2023-04-26T03:32:24.297Z,0.52
2023-04-26T03:33:24.342Z,0.53
2023-04-26T03:34:24.382Z,0.54
2023-04-26T03:35:24.572Z,0.53
2023-04-26T03:36:24.449Z,0.54
2023-04-26T03:37:24.471Z,0.53
2023-04-26T03:38:24.493Z,0.52
2023-04-26T03:39:24.539Z,0.53
2023-04-26T03:40:24.578Z,0.52
2023-04-26T03:41:24.597Z,0.53
2023-04-26T03:42:24.636Z,0.53
2023-04-26T03:43:24.649Z,0.52
2023-04-26T03:44:24.668Z,0.54
2023-04-26T03:45:24.721Z,0.52
2023-04-26T03:46:24.794Z,0.53
2023-04-26T03:47:24.842Z,0.52
2023-04-26T03:48:24.814Z,0.52
2023-04-26T03:49:24.848Z,0.52
2023-04-26T03:50:24.885Z,0.53
2023-04-26T03:51:24.894Z,0.51
2023-04-26T03:52:24.916Z,0.53
2023-04-26T03:53:24.948Z,0.53
2023-04-26T03:54:25.017Z,0.53
2023-04-26T03:55:25.007Z,0.52
2023-04-26T03:56:25.034Z,0.53
2023-04-26T03:57:25.060Z,0.52
2023-04-26T03:58:25.104Z,0.52
2023-04-26T03:59:25.105Z,0.53
2023-04-26T04:00:25.128Z,0.52
2023-04-26T04:01:25.148Z,0.52
2023-04-26T04:02:25.249Z,0.52
2023-04-26T04:03:25.471Z,0.53
2023-04-26T04:04:25.432Z,0.53
2023-04-26T04:05:25.312Z,0.52
2023-04-26T04:06:25.276Z,0.52
2023-04-26T04:07:25.307Z,0.52
2023-04-26T04:08:25.333Z,0.53
2023-04-26T04:09:25.367Z,0.52
2023-04-26T04:10:25.376Z,0.53
2023-04-26T04:11:25.400Z,0.52
2023-04-26T04:12:25.425Z,0.53
2023-04-26T04:13:25.438Z,0.53
2023-04-26T04:14:25.469Z,0.52
2023-04-26T04:15:25.520Z,0.52
2023-04-26T04:16:25.569Z,0.51
2023-04-26T04:17:25.553Z,0.52
2023-04-26T04:18:25.590Z,0.51
2023-04-26T04:19:25.616Z,0.52
2023-04-26T04:20:25.640Z,0.52
2023-04-26T04:21:25.635Z,0.52
2023-04-26T04:22:25.662Z,0.52
2023-04-26T04:23:25.687Z,0.53
2023-04-26T04:24:25.762Z,0.52
2023-04-26T04:25:25.749Z,0.51
2023-04-26T04:26:25.805Z,0.52
2023-04-26T04:27:25.794Z,0.51
2023-04-26T04:28:25.833Z,0.51
2023-04-26T04:29:25.871Z,0.52
2023-04-26T04:30:25.915Z,0.51
2023-04-26T04:31:25.979Z,0.52
2023-04-26T04:32:26.000Z,0.52
2023-04-26T04:33:26.001Z,0.51
2023-04-26T04:34:26.056Z,0.53
2023-04-26T04:35:26.075Z,0.51
2023-04-26T04:36:26.103Z,0.50
2023-04-26T04:37:26.127Z,0.51
2023-04-26T04:38:26.167Z,0.51
2023-04-26T04:39:26.193Z,0.51
2023-04-26T04:40:26.229Z,0.51
2023-04-26T04:41:26.255Z,0.52
2023-04-26T04:42:26.296Z,0.52
2023-04-26T04:43:26.317Z,0.51
2023-04-26T04:44:26.360Z,0.51
2023-04-26T04:45:26.384Z,0.51
2023-04-26T04:46:26.469Z,0.51
2023-04-26T04:47:26.565Z,0.51
2023-04-26T04:48:26.479Z,0.51
2023-04-26T04:49:26.502Z,0.52
2023-04-26T04:50:26.544Z,0.52
2023-04-26T04:51:26.579Z,0.51
2023-04-26T04:52:26.596Z,0.52
2023-04-26T04:53:26.621Z,0.51
2023-04-26T04:54:26.653Z,0.51
2023-04-26T04:55:26.675Z,0.52
2023-04-26T04:56:26.719Z,0.50
2023-04-26T04:57:26.745Z,0.52
2023-04-26T04:58:26.767Z,0.52
2023-04-26T05:00:26.820Z,0.51
2023-04-26T05:01:26.905Z,0.51
2023-04-26T05:02:26.986Z,0.52
2023-04-26T05:03:26.998Z,0.52
2023-04-26T05:04:27.177Z,0.52
2023-04-26T05:05:26.988Z,0.53
2023-04-26T05:06:27.009Z,0.55
2023-04-26T05:07:28.958Z,0.56
2023-04-26T05:08:27.066Z,0.57
2023-04-26T05:09:27.098Z,0.63
2023-04-26T05:10:27.121Z,0.73
2023-04-26T05:11:27.128Z,0.82
2023-04-26T05:12:27.202Z,0.90
2023-04-26T05:13:27.155Z,0.83
2023-04-26T05:14:27.187Z,0.81
2023-04-26T05:15:27.243Z,0.75
2023-04-26T05:16:27.268Z,0.76
2023-04-26T05:17:27.251Z,0.81
2023-04-26T05:18:28.170Z,0.81
2023-04-26T05:19:27.159Z,0.82
2023-04-26T05:20:27.129Z,0.84
2023-04-26T05:21:27.121Z,0.88
2023-04-26T05:22:27.618Z,0.92
2023-04-26T05:23:27.086Z,0.81
2023-04-26T05:24:27.093Z,0.82
2023-04-26T05:25:27.079Z,0.81
2023-04-26T05:26:27.067Z,0.74
2023-04-26T05:27:27.033Z,0.56
2023-04-26T05:28:27.044Z,0.54
2023-04-26T05:29:27.635Z,0.60
2023-04-26T05:30:26.989Z,0.64
2023-04-26T05:31:27.221Z,0.65
2023-04-26T05:32:26.953Z,0.54
2023-04-26T05:33:26.939Z,0.50
2023-04-26T05:34:26.946Z,0.49
2023-04-26T05:35:26.911Z,0.49
2023-04-26T05:36:29.160Z,0.60
2023-04-26T05:37:29.831Z,0.67
2023-04-26T05:38:26.809Z,0.67
2023-04-26T05:39:26.778Z,0.68
2023-04-26T05:40:26.788Z,0.69
2023-04-26T05:41:26.733Z,0.70
2023-04-26T05:42:26.706Z,0.73
2023-04-26T05:43:28.255Z,0.67
2023-04-26T05:44:26.643Z,0.67
2023-04-26T05:45:26.650Z,0.70
2023-04-26T05:46:27.234Z,0.73
2023-04-26T05:47:26.700Z,0.68
2023-04-26T05:48:26.655Z,0.68
2023-04-26T05:49:26.573Z,0.72
2023-04-26T05:50:28.169Z,0.78
2023-04-26T05:51:26.522Z,0.85
2023-04-26T05:52:26.475Z,0.95
2023-04-26T05:53:26.601Z,0.93
2023-04-26T05:54:26.412Z,0.90
2023-04-26T05:55:26.388Z,0.88
2023-04-26T05:56:26.347Z,0.87
2023-04-26T05:57:26.384Z,0.91
2023-04-26T05:58:26.279Z,0.94
2023-04-26T05:59:26.338Z,0.96
2023-04-26T06:00:26.350Z,0.95
2023-04-26T06:01:26.381Z,0.99
2023-04-26T06:02:26.494Z,1.04
2023-04-26T06:03:26.572Z,1.04
2023-04-26T06:04:26.725Z,1.08
2023-04-26T06:05:26.562Z,1.11
2023-04-26T06:06:26.688Z,1.14
2023-04-26T06:07:26.525Z,1.19
2023-04-26T06:08:26.553Z,1.25
2023-04-26T06:09:26.616Z,1.28
2023-04-26T06:10:26.653Z,1.26
2023-04-26T06:11:26.653Z,1.28
2023-04-26T06:12:26.689Z,1.26
2023-04-26T06:13:26.725Z,1.27
2023-04-26T06:14:30.517Z,1.28
2023-04-26T06:15:26.725Z,1.29
2023-04-26T06:16:26.734Z,1.29
2023-04-26T06:17:26.681Z,1.31
2023-04-26T06:18:26.630Z,1.35
2023-04-26T06:19:26.591Z,1.42
2023-04-26T06:20:26.588Z,1.41
2023-04-26T06:21:26.549Z,1.45
2023-04-26T06:22:26.513Z,1.26
2023-04-26T06:23:26.507Z,1.18
2023-04-26T06:24:26.453Z,1.16
2023-04-26T06:25:26.435Z,1.15
2023-04-26T06:26:26.394Z,1.20
2023-04-26T06:27:26.375Z,1.27
2023-04-26T06:28:26.347Z,1.32
2023-04-26T06:29:26.316Z,1.33
2023-04-26T06:30:26.298Z,1.39
2023-04-26T06:31:26.292Z,1.42
2023-04-26T06:32:26.254Z,1.45
2023-04-26T06:33:26.188Z,1.44
2023-04-26T06:34:26.180Z,1.48
2023-04-26T06:35:26.126Z,1.49
2023-04-26T06:36:26.110Z,1.52
2023-04-26T06:37:26.075Z,1.54
2023-04-26T06:38:26.021Z,1.57
2023-04-26T06:39:25.996Z,1.57
2023-04-26T06:40:25.969Z,1.62
2023-04-26T06:41:25.986Z,1.65
2023-04-26T06:42:26.578Z,1.66
2023-04-26T06:43:26.038Z,1.65
2023-04-26T06:44:26.056Z,1.51
2023-04-26T06:45:26.116Z,1.48
2023-04-26T06:46:26.172Z,1.66
2023-04-26T06:47:26.202Z,1.63
2023-04-26T06:48:26.201Z,1.65
2023-04-26T06:49:26.243Z,1.60
2023-04-26T06:50:26.330Z,1.69
2023-04-26T06:51:26.307Z,1.68
2023-04-26T06:52:26.359Z,1.61
2023-04-26T06:53:26.379Z,1.50
2023-04-26T06:54:26.406Z,1.62
2023-04-26T06:55:26.461Z,1.62
2023-04-26T06:56:26.507Z,1.55
2023-04-26T06:57:26.537Z,1.54
2023-04-26T06:58:26.572Z,1.41
2023-04-26T06:59:26.610Z,1.49
2023-04-26T07:00:26.683Z,1.52
2023-04-26T07:01:26.733Z,1.61
2023-04-26T07:02:26.881Z,1.64
2023-04-26T07:03:26.924Z,1.66
2023-04-26T07:04:26.982Z,1.69
2023-04-26T07:05:26.838Z,1.73
2023-04-26T07:06:26.873Z,1.73
2023-04-26T07:07:26.930Z,1.76
2023-04-26T07:08:26.965Z,1.73
2023-04-26T07:09:26.984Z,1.52
2023-04-26T07:10:27.298Z,1.53
2023-04-26T07:11:27.118Z,1.58
2023-04-26T07:12:27.032Z,1.58
2023-04-26T07:13:28.194Z,1.58
2023-04-26T07:14:26.982Z,1.54
2023-04-26T07:15:26.950Z,1.44
2023-04-26T07:16:27.181Z,1.44
2023-04-26T07:17:26.898Z,1.46
2023-04-26T07:18:27.692Z,1.52
2023-04-26T07:19:26.840Z,1.52
2023-04-26T07:20:27.184Z,1.58
2023-04-26T07:21:26.830Z,1.63
2023-04-26T07:22:27.603Z,1.58
2023-04-26T07:23:26.718Z,1.52
2023-04-26T07:24:26.717Z,1.57
2023-04-26T07:25:26.658Z,1.63
2023-04-26T07:26:27.150Z,1.75
2023-04-26T07:27:26.639Z,1.85
2023-04-26T07:28:26.667Z,1.95
2023-04-26T07:29:26.689Z,2.13
2023-04-26T07:30:26.732Z,2.10
2023-04-26T07:31:26.725Z,2.13
2023-04-26T07:32:26.919Z,2.12
2023-04-26T07:33:26.847Z,2.14
2023-04-26T07:34:26.795Z,2.17
2023-04-26T07:35:27.611Z,2.09
2023-04-26T07:36:26.845Z,2.09
2023-04-26T07:37:28.701Z,2.06
2023-04-26T07:38:28.716Z,2.09
2023-04-26T07:39:27.685Z,2.18
2023-04-26T07:40:27.859Z,2.18
2023-04-26T07:41:26.861Z,2.10
2023-04-26T07:42:27.655Z,1.83
2023-04-26T07:43:26.768Z,1.92
2023-04-26T07:44:26.742Z,1.71
2023-04-26T07:45:26.774Z,1.57
2023-04-26T07:46:26.753Z,1.49
2023-04-26T07:47:26.688Z,1.31
2023-04-26T07:48:26.627Z,1.32
2023-04-26T07:49:26.651Z,1.37
2023-04-26T07:50:26.574Z,1.25
2023-04-26T07:51:26.527Z,1.25
2023-04-26T07:52:26.500Z,1.27
2023-04-26T07:53:26.484Z,1.30
2023-04-26T07:54:27.210Z,1.28
2023-04-26T07:55:26.426Z,1.26
2023-04-26T07:56:31.397Z,1.31
2023-04-26T07:57:26.316Z,1.32
2023-04-26T07:58:26.295Z,1.28
2023-04-26T07:59:26.266Z,1.32
2023-04-26T08:00:26.237Z,1.26
2023-04-26T08:01:26.219Z,1.26
2023-04-26T08:02:41.061Z,1.21
2023-04-26T08:03:27.372Z,1.09
2023-04-26T08:04:26.175Z,1.05
2023-04-26T08:05:26.856Z,1.06
2023-04-26T08:06:26.115Z,1.13
2023-04-26T08:07:26.016Z,1.07
2023-04-26T08:08:25.984Z,0.91
2023-04-26T08:09:25.961Z,0.88
2023-04-26T08:10:25.944Z,0.85
2023-04-26T08:11:25.925Z,0.83
2023-04-26T08:12:26.876Z,0.85
2023-04-26T08:13:29.304Z,0.85
2023-04-26T08:14:25.840Z,0.85
2023-04-26T08:15:25.809Z,0.85
2023-04-26T08:16:25.896Z,0.85
2023-04-26T08:17:25.847Z,0.80
2023-04-26T08:18:25.726Z,0.80
2023-04-26T08:19:26.728Z,0.68
2023-04-26T08:20:25.692Z,0.50
2023-04-26T08:21:25.668Z,0.49
2023-04-26T08:22:26.213Z,0.50
2023-04-26T08:23:25.610Z,0.50
2023-04-26T08:24:25.589Z,0.49
2023-04-26T08:25:25.568Z,0.50
2023-04-26T08:26:25.529Z,0.45
2023-04-26T08:27:25.505Z,0.44
2023-04-26T08:28:25.472Z,0.41
2023-04-26T08:29:25.451Z,0.38
2023-04-26T08:30:25.423Z,0.34
2023-04-26T08:31:25.470Z,0.34
2023-04-26T08:32:25.371Z,0.34
2023-04-26T08:33:25.322Z,0.34
2023-04-26T08:34:25.273Z,0.38
2023-04-26T08:35:25.232Z,0.45
2023-04-26T08:36:25.196Z,0.52
2023-04-26T08:37:25.342Z,0.57
2023-04-26T08:38:25.225Z,0.63
2023-04-26T08:39:25.246Z,0.71
2023-04-26T08:40:25.288Z,0.75
2023-04-26T08:41:25.282Z,0.83
2023-04-26T08:42:26.221Z,0.95
2023-04-26T08:43:25.267Z,0.96
2023-04-26T08:44:25.357Z,0.99
2023-04-26T08:45:25.238Z,1.10
2023-04-26T08:46:25.212Z,1.29
2023-04-26T08:47:25.529Z,1.67
2023-04-26T08:48:25.160Z,1.78
2023-04-26T08:49:25.081Z,1.95
2023-04-26T08:50:25.027Z,2.06
2023-04-26T08:51:24.992Z,2.23
2023-04-26T08:52:25.740Z,2.23
2023-04-26T08:53:24.918Z,2.27
2023-04-26T08:54:25.728Z,2.33
2023-04-26T08:55:24.853Z,2.50
2023-04-26T08:56:24.810Z,2.74
2023-04-26T08:57:24.790Z,2.94
2023-04-26T08:58:24.745Z,3.10
2023-04-26T08:59:24.715Z,3.20
2023-04-26T09:00:25.231Z,3.13
2023-04-26T09:01:24.678Z,3.28
2023-04-26T09:02:24.856Z,3.31
2023-04-26T09:03:24.784Z,3.40
2023-04-26T09:04:25.492Z,3.39
2023-04-26T09:05:25.053Z,3.41
2023-04-26T09:06:24.768Z,3.49
2023-04-26T09:07:25.741Z,3.47
2023-04-26T09:08:24.935Z,3.42
2023-04-26T09:09:24.840Z,3.40
2023-04-26T09:10:24.874Z,3.40
2023-04-26T09:11:24.905Z,3.43
2023-04-26T09:12:24.924Z,3.43
2023-04-26T09:13:24.960Z,3.41
2023-04-26T09:14:24.997Z,3.67
2023-04-26T09:15:24.993Z,3.99
2023-04-26T09:16:25.062Z,4.08
2023-04-26T09:17:25.055Z,4.48
2023-04-26T09:18:25.035Z,4.68
2023-04-26T09:19:25.069Z,4.56
2023-04-26T09:20:25.065Z,4.82
2023-04-26T09:21:25.131Z,4.61
2023-04-26T09:22:25.187Z,4.03
2023-04-26T09:23:25.184Z,3.75
2023-04-26T09:24:26.750Z,3.46
2023-04-26T09:25:25.746Z,3.53
2023-04-26T09:26:25.172Z,3.41
2023-04-26T09:27:25.158Z,3.60
2023-04-26T09:28:26.178Z,4.04
2023-04-26T09:29:25.144Z,4.12
2023-04-26T09:30:25.128Z,4.49
2023-04-26T09:31:25.144Z,5.21
2023-04-26T09:32:25.091Z,6.38
2023-04-26T09:33:25.126Z,6.89
2023-04-26T09:34:25.077Z,6.55
2023-04-26T09:35:25.070Z,6.28
2023-04-26T09:36:25.068Z,6.08
2023-04-26T09:37:25.045Z,5.88
2023-04-26T09:38:25.736Z,6.16
2023-04-26T09:39:25.028Z,5.78
2023-04-26T09:40:25.015Z,5.52
2023-04-26T09:41:25.018Z,5.77
2023-04-26T09:42:25.002Z,5.04
2023-04-26T09:43:25.011Z,4.03
2023-04-26T09:44:25.757Z,3.39
2023-04-26T09:45:25.026Z,3.43
2023-04-26T09:46:25.232Z,4.04
2023-04-26T09:47:25.055Z,4.20
2023-04-26T09:48:25.026Z,4.82
2023-04-26T09:49:25.108Z,5.08
2023-04-26T09:50:25.744Z,5.19
2023-04-26T09:51:25.006Z,5.45
2023-04-26T09:52:25.004Z,5.26
2023-04-26T09:53:25.070Z,5.29
2023-04-26T09:54:24.979Z,5.45
2023-04-26T09:55:34.038Z,5.35
2023-04-26T09:56:25.984Z,4.65
2023-04-26T09:57:26.673Z,4.47
2023-04-26T09:58:24.953Z,4.37
2023-04-26T09:59:24.920Z,4.53
2023-04-26T10:00:25.757Z,4.13
2023-04-26T10:01:25.877Z,4.42
2023-04-26T10:02:25.012Z,4.44
2023-04-26T10:03:25.777Z,4.43
2023-04-26T10:04:24.888Z,4.63
2023-04-26T10:05:24.845Z,4.84
2023-04-26T10:06:24.842Z,5.04
2023-04-26T10:07:24.840Z,5.34
2023-04-26T10:08:24.802Z,5.40
2023-04-26T10:09:29.953Z,5.02
2023-04-26T10:10:24.829Z,4.77
2023-04-26T10:11:24.799Z,4.35
2023-04-26T10:12:24.782Z,4.41
2023-04-26T10:13:24.769Z,4.26
2023-04-26T10:14:24.728Z,4.07
2023-04-26T10:15:24.736Z,4.23
2023-04-26T10:16:24.752Z,4.00
2023-04-26T10:17:24.725Z,4.34
2023-04-26T10:18:24.711Z,4.32
2023-04-26T10:19:24.685Z,4.94
2023-04-26T10:20:24.665Z,4.78
2023-04-26T10:21:24.683Z,4.90
2023-04-26T10:22:24.625Z,4.65
2023-04-26T10:23:24.609Z,4.80
2023-04-26T10:24:24.694Z,4.65
2023-04-26T10:25:24.618Z,5.26
2023-04-26T10:26:24.569Z,5.36
2023-04-26T10:27:24.578Z,5.32
2023-04-26T10:28:24.553Z,5.76
2023-04-26T10:29:24.579Z,5.98
2023-04-26T10:30:24.534Z,6.21
2023-04-26T10:31:24.554Z,6.68
2023-04-26T10:32:24.510Z,6.76
2023-04-26T10:33:24.563Z,6.69
2023-04-26T10:34:24.514Z,6.82
2023-04-26T10:35:24.525Z,6.39
2023-04-26T10:36:24.551Z,6.64
2023-04-26T10:37:24.555Z,6.32
2023-04-26T10:38:24.601Z,6.57
2023-04-26T10:39:24.584Z,6.54
2023-04-26T10:40:24.719Z,6.02
2023-04-26T10:41:24.769Z,7.04
2023-04-26T10:42:25.459Z,6.10
2023-04-26T10:43:26.091Z,5.44
2023-04-26T10:44:24.692Z,5.93
2023-04-26T10:45:24.826Z,7.89
2023-04-26T10:46:24.759Z,9.10
2023-04-26T10:47:24.813Z,7.60
2023-04-26T10:48:24.820Z,6.30
2023-04-26T10:49:26.651Z,5.73
2023-04-26T10:50:24.892Z,4.21
2023-04-26T10:51:24.939Z,4.08
2023-04-26T10:52:24.936Z,3.62
2023-04-26T10:53:24.974Z,3.54
2023-04-26T10:54:25.000Z,3.35
2023-04-26T10:55:25.549Z,3.34
2023-04-26T10:56:25.101Z,3.22
2023-04-26T10:57:25.072Z,3.37
2023-04-26T10:58:25.095Z,3.11
2023-04-26T10:59:39.681Z,3.04
2023-04-26T11:00:27.047Z,2.80
2023-04-26T11:01:25.117Z,2.66
2023-04-26T11:02:25.138Z,2.78
2023-04-26T11:03:25.194Z,2.83
2023-04-26T11:04:25.127Z,2.68
2023-04-26T11:05:25.484Z,2.81
2023-04-26T11:06:25.015Z,3.07
2023-04-26T11:07:24.994Z,3.20
2023-04-26T11:08:24.966Z,3.51
2023-04-26T11:09:24.945Z,3.62
2023-04-26T11:10:25.794Z,3.80
2023-04-26T11:11:24.891Z,3.85
2023-04-26T11:12:24.857Z,4.27
2023-04-26T11:13:24.825Z,4.63
2023-04-26T11:14:24.793Z,4.83
2023-04-26T11:15:24.763Z,5.06
2023-04-26T11:16:24.795Z,5.08
2023-04-26T11:17:24.696Z,4.88
2023-04-26T11:18:24.650Z,4.60
2023-04-26T11:19:24.627Z,4.42
2023-04-26T11:20:24.582Z,4.86
2023-04-26T11:21:24.559Z,4.82
2023-04-26T11:22:24.557Z,5.29
2023-04-26T11:23:24.482Z,5.51
2023-04-26T11:24:24.436Z,5.66
2023-04-26T11:25:24.410Z,5.72
2023-04-26T11:26:24.364Z,5.59
2023-04-26T11:27:24.324Z,5.88
2023-04-26T11:28:24.295Z,6.09
2023-04-26T11:29:24.267Z,6.37
2023-04-26T11:30:24.254Z,6.29
2023-04-26T11:31:24.257Z,6.09
2023-04-26T11:32:24.127Z,6.25
2023-04-26T11:33:24.115Z,6.12
2023-04-26T11:34:24.044Z,6.27
2023-04-26T11:35:24.015Z,6.30
2023-04-26T11:36:23.975Z,5.53
2023-04-26T11:37:23.963Z,5.85
2023-04-26T11:38:23.971Z,5.97
2023-04-26T11:39:24.001Z,6.15
2023-04-26T11:40:24.018Z,5.95
2023-04-26T11:41:24.043Z,6.17
2023-04-26T11:42:24.048Z,6.10
2023-04-26T11:43:24.084Z,6.15
2023-04-26T11:44:24.120Z,5.90
2023-04-26T11:45:24.309Z,5.79
2023-04-26T11:46:24.249Z,5.79
2023-04-26T11:47:24.191Z,5.77
2023-04-26T11:48:24.213Z,5.74
2023-04-26T11:49:24.215Z,5.76
2023-04-26T11:50:24.255Z,5.86
2023-04-26T11:51:24.298Z,5.87
2023-04-26T11:52:24.301Z,5.87
2023-04-26T11:53:24.349Z,5.93
2023-04-26T11:54:24.366Z,5.77
2023-04-26T11:55:24.404Z,5.72
2023-04-26T11:56:24.433Z,5.66
2023-04-26T11:57:24.446Z,5.58
2023-04-26T11:58:24.479Z,5.45
2023-04-26T11:59:24.495Z,5.41
2023-04-26T12:00:24.504Z,5.26
2023-04-26T12:01:24.571Z,5.40
2023-04-26T12:02:24.677Z,5.57
2023-04-26T12:03:24.755Z,5.83
2023-04-26T12:04:25.959Z,5.78
2023-04-26T12:05:24.676Z,5.81
2023-04-26T12:06:24.542Z,5.88
2023-04-26T12:07:24.499Z,5.77
2023-04-26T12:08:24.477Z,5.79
2023-04-26T12:09:24.442Z,5.38
2023-04-26T12:10:24.409Z,5.15
2023-04-26T12:11:24.414Z,5.11
2023-04-26T12:12:24.428Z,5.11
2023-04-26T12:13:24.340Z,5.04
2023-04-26T12:14:24.302Z,5.22
2023-04-26T12:15:24.271Z,5.09
2023-04-26T12:16:26.683Z,5.15
2023-04-26T12:17:24.361Z,5.16
2023-04-26T12:18:24.190Z,5.17
2023-04-26T12:19:24.151Z,5.20
2023-04-26T12:20:24.118Z,5.19
2023-04-26T12:21:24.091Z,5.35
2023-04-26T12:22:24.057Z,5.35
2023-04-26T12:23:24.026Z,5.30
2023-04-26T12:24:24.013Z,5.36
2023-04-26T12:25:23.968Z,5.33
2023-04-26T12:26:23.943Z,5.37
2023-04-26T12:27:23.897Z,5.27
2023-04-26T12:28:23.906Z,5.52
2023-04-26T12:29:23.831Z,5.50
2023-04-26T12:30:23.825Z,5.58
2023-04-26T12:31:23.833Z,5.35
2023-04-26T12:32:23.748Z,5.36
2023-04-26T12:33:23.757Z,5.56
2023-04-26T12:34:23.690Z,5.51
2023-04-26T12:35:23.656Z,5.45
2023-04-26T12:36:23.646Z,5.37
2023-04-26T12:37:23.616Z,5.34
2023-04-26T12:38:23.576Z,5.29
2023-04-26T12:39:23.550Z,5.29
2023-04-26T12:40:23.519Z,5.27
2023-04-26T12:41:23.498Z,5.16
2023-04-26T12:42:24.350Z,4.88
2023-04-26T12:43:23.442Z,4.61
2023-04-26T12:44:23.412Z,4.66
2023-04-26T12:45:23.398Z,4.62
2023-04-26T12:46:23.381Z,4.56
2023-04-26T12:47:23.353Z,4.73
2023-04-26T12:48:23.316Z,4.64
2023-04-26T12:49:23.274Z,4.54
2023-04-26T12:50:23.241Z,4.39
2023-04-26T12:51:23.213Z,4.49
2023-04-26T12:52:23.173Z,4.49
2023-04-26T12:53:23.162Z,4.42
2023-04-26T12:54:23.114Z,4.43
2023-04-26T12:55:23.086Z,4.36
2023-04-26T12:56:23.048Z,4.34
2023-04-26T12:57:23.034Z,4.16
2023-04-26T12:58:23.040Z,4.14
2023-04-26T12:59:23.069Z,4.05
2023-04-26T13:00:23.096Z,4.06
2023-04-26T13:01:23.369Z,4.08
2023-04-26T13:02:23.255Z,4.09
2023-04-26T13:03:23.265Z,4.09
2023-04-26T13:04:23.401Z,4.05
2023-04-26T13:05:23.210Z,3.80
2023-04-26T13:06:23.234Z,3.95
2023-04-26T13:07:23.247Z,3.85
2023-04-26T13:08:23.266Z,3.74
2023-04-26T13:09:23.307Z,3.71
2023-04-26T13:10:23.334Z,3.69
2023-04-26T13:11:23.346Z,3.65
2023-04-26T13:12:23.368Z,3.26
2023-04-26T13:13:32.171Z,2.97
2023-04-26T13:14:24.449Z,2.22
2023-04-26T13:15:23.308Z,2.00
2023-04-26T13:16:23.356Z,1.55
2023-04-26T13:17:23.274Z,1.43
2023-04-26T13:18:23.189Z,1.25
2023-04-26T13:19:23.162Z,0.87